sensor_id;sensor_type;location;lat;lon;timestamp;pressure;altitude;pressure_sealevel;temperature;humidity
5966;BME280;3009;43.224;27.976;2023-03-21T00:01:49;100573.47;;;5.66;100.00
5966;BME280;3009;43.224;27.976;2023-03-21T00:04:20;100568.69;;;5.73;100.00
5966;BME280;3009;43.224;27.976;2023-03-21T00:06:49;100573.47;;;5.81;100.00
5966;BME280;3009;43.224;27.976;2023-03-21T00:09:18;100569.16;;;5.91;100.00
5966;BME280;3009;43.224;27.976;2023-03-21T00:11:47;100567.03;;;5.93;100.00
5966;BME280;3009;43.224;27.976;2023-03-21T00:14:16;100567.53;;;5.95;100.00
5966;BME280;3009;43.224;27.976;2023-03-21T00:16:47;100560.38;;;6.00;100.00
5966;BME280;3009;43.224;27.976;2023-03-21T00:19:17;100549.72;;;6.00;100.00
5966;BME280;3009;43.224;27.976;2023-03-21T00:21:48;100541.72;;;6.06;100.00
5966;BME280;3009;43.224;27.976;2023-03-21T00:24:33;100531.88;;;6.06;100.00
5966;BME280;3009;43.224;27.976;2023-03-21T00:27:02;100535.31;;;6.12;100.00
5966;BME280;3009;43.224;27.976;2023-03-21T00:29:51;100534.50;;;6.16;100.00
5966;BME280;3009;43.224;27.976;2023-03-21T00:32:20;100529.16;;;6.16;100.00
5966;BME280;3009;43.224;27.976;2023-03-21T00:34:49;100532.06;;;6.20;100.00
5966;BME280;3009;43.224;27.976;2023-03-21T00:37:39;100535.28;;;6.22;100.00
5966;BME280;3009;43.224;27.976;2023-03-21T00:40:08;100533.91;;;6.25;100.00
5966;BME280;3009;43.224;27.976;2023-03-21T00:42:53;100526.47;;;6.21;100.00
5966;BME280;3009;43.224;27.976;2023-03-21T00:45:21;100525.13;;;6.24;100.00
5966;BME280;3009;43.224;27.976;2023-03-21T00:47:50;100526.72;;;6.25;100.00
5966;BME280;3009;43.224;27.976;2023-03-21T00:50:19;100516.59;;;6.27;100.00
5966;BME280;3009;43.224;27.976;2023-03-21T00:52:49;100512.31;;;6.26;100.00
5966;BME280;3009;43.224;27.976;2023-03-21T00:55:18;100513.09;;;6.32;100.00
5966;BME280;3009;43.224;27.976;2023-03-21T00:57:47;100511.50;;;6.31;100.00
5966;BME280;3009;43.224;27.976;2023-03-21T01:00:25;100517.94;;;6.25;100.00
5966;BME280;3009;43.224;27.976;2023-03-21T01:02:53;100521.91;;;6.27;100.00
5966;BME280;3009;43.224;27.976;2023-03-21T01:05:47;100517.13;;;6.24;100.00
5966;BME280;3009;43.224;27.976;2023-03-21T01:08:35;100522.41;;;6.29;100.00
5966;BME280;3009;43.224;27.976;2023-03-21T01:11:21;100525.63;;;6.31;100.00
5966;BME280;3009;43.224;27.976;2023-03-21T01:13:50;100520.03;;;6.33;100.00
5966;BME280;3009;43.224;27.976;2023-03-21T01:16:37;100518.75;;;6.25;100.00
5966;BME280;3009;43.224;27.976;2023-03-21T01:19:07;100520.81;;;6.33;100.00
5966;BME280;3009;43.224;27.976;2023-03-21T01:21:50;100522.66;;;6.38;100.00
5966;BME280;3009;43.224;27.976;2023-03-21T01:24:20;100507.72;;;6.42;100.00
5966;BME280;3009;43.224;27.976;2023-03-21T01:26:48;100507.94;;;6.46;100.00
5966;BME280;3009;43.224;27.976;2023-03-21T01:29:17;100507.94;;;6.46;100.00
5966;BME280;3009;43.224;27.976;2023-03-21T01:31:45;100493.06;;;6.39;100.00
5966;BME280;3009;43.224;27.976;2023-03-21T01:34:14;100490.19;;;6.36;100.00
5966;BME280;3009;43.224;27.976;2023-03-21T01:36:42;100497.88;;;6.37;100.00
5966;BME280;3009;43.224;27.976;2023-03-21T01:39:11;100498.66;;;6.43;100.00
5966;BME280;3009;43.224;27.976;2023-03-21T01:41:41;100493.84;;;6.40;100.00
5966;BME280;3009;43.224;27.976;2023-03-21T01:44:14;100501.59;;;6.42;100.00
5966;BME280;3009;43.224;27.976;2023-03-21T01:46:44;100500.22;;;6.44;100.00
5966;BME280;3009;43.224;27.976;2023-03-21T01:49:37;100497.81;;;6.48;100.00
5966;BME280;3009;43.224;27.976;2023-03-21T01:52:09;100493.28;;;6.48;100.00
5966;BME280;3009;43.224;27.976;2023-03-21T01:54:53;100484.50;;;6.48;100.00
5966;BME280;3009;43.224;27.976;2023-03-21T01:57:27;100484.78;;;6.46;100.00
5966;BME280;3009;43.224;27.976;2023-03-21T02:00:11;100478.91;;;6.49;100.00
5966;BME280;3009;43.224;27.976;2023-03-21T02:02:42;100474.56;;;6.59;100.00
5966;BME280;3009;43.224;27.976;2023-03-21T02:05:23;100485.72;;;6.66;100.00
5966;BME280;3009;43.224;27.976;2023-03-21T02:07:54;100479.28;;;6.67;100.00
5966;BME280;3009;43.224;27.976;2023-03-21T02:10:23;100485.66;;;6.71;100.00
5966;BME280;3009;43.224;27.976;2023-03-21T02:12:53;100481.13;;;6.71;100.00
5966;BME280;3009;43.224;27.976;2023-03-21T02:15:25;100480.06;;;6.72;100.00
5966;BME280;3009;43.224;27.976;2023-03-21T02:17:58;100476.31;;;6.73;100.00
5966;BME280;3009;43.224;27.976;2023-03-21T02:20:46;100476.63;;;6.67;100.00
5966;BME280;3009;43.224;27.976;2023-03-21T02:26:47;100483.63;;;6.57;100.00
5966;BME280;3009;43.224;27.976;2023-03-21T02:29:55;100492.69;;;6.56;100.00
5966;BME280;3009;43.224;27.976;2023-03-21T02:32:31;100493.72;;;6.61;100.00
5966;BME280;3009;43.224;27.976;2023-03-21T02:35:24;100495.81;;;6.69;100.00
5966;BME280;3009;43.224;27.976;2023-03-21T02:38:03;100491.00;;;6.71;100.00
5966;BME280;3009;43.224;27.976;2023-03-21T02:40:38;100490.72;;;6.72;100.00
5966;BME280;3009;43.224;27.976;2023-03-21T02:43:12;100486.13;;;6.78;100.00
5966;BME280;3009;43.224;27.976;2023-03-21T02:45:52;100490.38;;;6.79;100.00
5966;BME280;3009;43.224;27.976;2023-03-21T02:48:24;100481.38;;;6.75;100.00
5966;BME280;3009;43.224;27.976;2023-03-21T02:51:12;100485.31;;;6.83;100.00
5966;BME280;3009;43.224;27.976;2023-03-21T02:53:47;100485.03;;;6.79;100.00
5966;BME280;3009;43.224;27.976;2023-03-21T02:56:36;100489.59;;;6.79;100.00
5966;BME280;3009;43.224;27.976;2023-03-21T02:59:06;100487.69;;;6.84;100.00
5966;BME280;3009;43.224;27.976;2023-03-21T03:01:35;100483.41;;;6.83;100.00
5966;BME280;3009;43.224;27.976;2023-03-21T03:04:15;100481.81;;;6.82;100.00
5966;BME280;3009;43.224;27.976;2023-03-21T03:06:54;100477.59;;;6.81;100.00
5966;BME280;3009;43.224;27.976;2023-03-21T03:09:40;100471.16;;;6.82;100.00
5966;BME280;3009;43.224;27.976;2023-03-21T03:12:21;100464.53;;;6.80;100.00
5966;BME280;3009;43.224;27.976;2023-03-21T03:14:55;100461.03;;;6.84;100.00
5966;BME280;3009;43.224;27.976;2023-03-21T03:17:47;100462.59;;;6.85;100.00
5966;BME280;3009;43.224;27.976;2023-03-21T03:20:22;100451.25;;;6.74;100.00
5966;BME280;3009;43.224;27.976;2023-03-21T03:23:03;100447.78;;;6.74;100.00
5966;BME280;3009;43.224;27.976;2023-03-21T03:25:39;100455.22;;;6.77;100.00
5966;BME280;3009;43.224;27.976;2023-03-21T03:28:12;100468.59;;;6.72;100.00
5966;BME280;3009;43.224;27.976;2023-03-21T03:30:42;100467.78;;;6.77;100.00
5966;BME280;3009;43.224;27.976;2023-03-21T03:33:32;100453.06;;;6.79;100.00
5966;BME280;3009;43.224;27.976;2023-03-21T03:36:02;100460.22;;;6.84;100.00
5966;BME280;3009;43.224;27.976;2023-03-21T03:38:34;100462.06;;;6.88;100.00
5966;BME280;3009;43.224;27.976;2023-03-21T03:41:08;100458.31;;;6.89;100.00
5966;BME280;3009;43.224;27.976;2023-03-21T03:43:42;100463.41;;;6.86;100.00
5966;BME280;3009;43.224;27.976;2023-03-21T03:46:17;100459.94;;;6.85;100.00
5966;BME280;3009;43.224;27.976;2023-03-21T03:48:48;100464.19;;;6.86;100.00
5966;BME280;3009;43.224;27.976;2023-03-21T03:51:22;100465.53;;;6.89;100.00
5966;BME280;3009;43.224;27.976;2023-03-21T03:53:54;100464.25;;;6.81;100.00
5966;BME280;3009;43.224;27.976;2023-03-21T03:56:26;100466.38;;;6.84;100.00
5966;BME280;3009;43.224;27.976;2023-03-21T03:58:55;100466.38;;;6.84;100.00
5966;BME280;3009;43.224;27.976;2023-03-21T04:01:24;100467.44;;;6.83;100.00
5966;BME280;3009;43.224;27.976;2023-03-21T04:03:52;100471.72;;;6.79;100.00
5966;BME280;3009;43.224;27.976;2023-03-21T04:06:38;100475.72;;;6.82;100.00
5966;BME280;3009;43.224;27.976;2023-03-21T04:09:07;100467.72;;;6.82;100.00
5966;BME280;3009;43.224;27.976;2023-03-21T04:11:49;100461.59;;;6.81;100.00
5966;BME280;3009;43.224;27.976;2023-03-21T04:14:17;100461.81;;;6.85;100.00
5966;BME280;3009;43.224;27.976;2023-03-21T04:16:45;100469.59;;;6.81;100.00
5966;BME280;3009;43.224;27.976;2023-03-21T04:19:15;100468.47;;;6.87;100.00
5966;BME280;3009;43.224;27.976;2023-03-21T04:21:44;100466.88;;;6.86;100.00
5966;BME280;3009;43.224;27.976;2023-03-21T04:24:13;100463.13;;;6.87;100.00
5966;BME280;3009;43.224;27.976;2023-03-21T04:26:43;100462.16;;;6.78;100.00
5966;BME280;3009;43.224;27.976;2023-03-21T04:29:12;100457.47;;;6.65;100.00
5966;BME280;3009;43.224;27.976;2023-03-21T04:31:41;100453.25;;;6.59;100.00
5966;BME280;3009;43.224;27.976;2023-03-21T04:34:09;100459.78;;;6.77;100.00
5966;BME280;3009;43.224;27.976;2023-03-21T04:36:38;100459.16;;;6.85;100.00
5966;BME280;3009;43.224;27.976;2023-03-21T04:39:12;100460.28;;;6.79;100.00
5966;BME280;3009;43.224;27.976;2023-03-21T04:41:44;100465.03;;;6.82;100.00
5966;BME280;3009;43.224;27.976;2023-03-21T04:44:15;100466.88;;;6.86;100.00
5966;BME280;3009;43.224;27.976;2023-03-21T04:46:43;100460.00;;;6.80;100.00
5966;BME280;3009;43.224;27.976;2023-03-21T04:49:12;100465.31;;;6.80;100.00
5966;BME280;3009;43.224;27.976;2023-03-21T04:51:40;100470.88;;;6.84;100.00
5966;BME280;3009;43.224;27.976;2023-03-21T04:54:09;100478.56;;;6.90;100.00
5966;BME280;3009;43.224;27.976;2023-03-21T04:56:39;100479.34;;;6.91;100.00
5966;BME280;3009;43.224;27.976;2023-03-21T04:59:11;100476.94;;;6.95;100.00
5966;BME280;3009;43.224;27.976;2023-03-21T05:01:41;100468.09;;;6.99;100.00
5966;BME280;3009;43.224;27.976;2023-03-21T05:04:12;100475.84;;;6.96;100.00
5966;BME280;3009;43.224;27.976;2023-03-21T05:06:41;100480.66;;;6.94;100.00
5966;BME280;3009;43.224;27.976;2023-03-21T05:09:11;100480.66;;;6.94;100.00
5966;BME280;3009;43.224;27.976;2023-03-21T05:11:40;100478.75;;;6.99;100.00
5966;BME280;3009;43.224;27.976;2023-03-21T05:14:10;100478.97;;;7.03;100.00
5966;BME280;3009;43.224;27.976;2023-03-21T05:16:41;100479.81;;;6.98;100.00
5966;BME280;3009;43.224;27.976;2023-03-21T05:19:11;100475.47;;;7.07;100.00
5966;BME280;3009;43.224;27.976;2023-03-21T05:21:40;100470.38;;;7.11;100.00
5966;BME280;3009;43.224;27.976;2023-03-21T05:24:08;100466.78;;;6.97;100.00
5966;BME280;3009;43.224;27.976;2023-03-21T05:26:41;100461.03;;;6.84;100.00
5966;BME280;3009;43.224;27.976;2023-03-21T05:29:09;100463.34;;;6.91;100.00
5966;BME280;3009;43.224;27.976;2023-03-21T05:31:40;100458.59;;;6.88;100.00
5966;BME280;3009;43.224;27.976;2023-03-21T05:34:08;100462.69;;;7.04;100.00
5966;BME280;3009;43.224;27.976;2023-03-21T05:36:37;100461.06;;;7.08;100.00
5966;BME280;3009;43.224;27.976;2023-03-21T05:39:05;100472.22;;;7.16;100.00
5966;BME280;3009;43.224;27.976;2023-03-21T05:41:34;100468.25;;;7.08;100.00
5966;BME280;3009;43.224;27.976;2023-03-21T05:44:02;100466.88;;;7.16;100.00
5966;BME280;3009;43.224;27.976;2023-03-21T05:46:30;100466.06;;;7.15;100.00
5966;BME280;3009;43.224;27.976;2023-03-21T05:49:00;100459.94;;;7.15;100.00
5966;BME280;3009;43.224;27.976;2023-03-21T05:51:29;100457.00;;;7.16;100.00
5966;BME280;3009;43.224;27.976;2023-03-21T05:53:57;100470.22;;;7.26;100.00
5966;BME280;3009;43.224;27.976;2023-03-21T05:56:25;100487.94;;;7.17;100.00
5966;BME280;3009;43.224;27.976;2023-03-21T05:58:54;100485.47;;;7.21;100.00
5966;BME280;3009;43.224;27.976;2023-03-21T06:01:22;100475.84;;;7.25;100.00
5966;BME280;3009;43.224;27.976;2023-03-21T06:03:50;100481.75;;;7.22;100.00
5966;BME280;3009;43.224;27.976;2023-03-21T06:06:20;100496.38;;;7.24;100.00
5966;BME280;3009;43.224;27.976;2023-03-21T06:08:49;100489.34;;;7.34;100.00
5966;BME280;3009;43.224;27.976;2023-03-21T06:11:22;100497.97;;;7.50;100.00
5966;BME280;3009;43.224;27.976;2023-03-21T06:13:51;100494.13;;;7.37;100.00
5966;BME280;3009;43.224;27.976;2023-03-21T06:16:19;100499.56;;;7.26;100.00
5966;BME280;3009;43.224;27.976;2023-03-21T06:18:48;100498.94;;;7.35;100.00
5966;BME280;3009;43.224;27.976;2023-03-21T06:21:16;100496.84;;;7.32;100.00
5966;BME280;3009;43.224;27.976;2023-03-21T06:23:46;100493.88;;;7.33;100.00
5966;BME280;3009;43.224;27.976;2023-03-21T06:26:17;100488.78;;;7.37;100.00
5966;BME280;3009;43.224;27.976;2023-03-21T06:28:48;100493.03;;;7.38;100.00
5966;BME280;3009;43.224;27.976;2023-03-21T06:31:17;100491.84;;;7.49;100.00
5966;BME280;3009;43.224;27.976;2023-03-21T06:33:48;100490.75;;;7.50;100.00
5966;BME280;3009;43.224;27.976;2023-03-21T06:36:17;100495.38;;;7.69;100.00
5966;BME280;3009;43.224;27.976;2023-03-21T06:38:47;100483.84;;;7.73;100.00
5966;BME280;3009;43.224;27.976;2023-03-21T06:41:16;100490.94;;;7.59;100.00
5966;BME280;3009;43.224;27.976;2023-03-21T06:43:45;100493.38;;;7.55;100.00
5966;BME280;3009;43.224;27.976;2023-03-21T06:46:14;100507.28;;;7.52;100.00
5966;BME280;3009;43.224;27.976;2023-03-21T06:48:42;100494.75;;;7.53;100.00
5966;BME280;3009;43.224;27.976;2023-03-21T06:51:12;100493.59;;;7.35;100.00
5966;BME280;3009;43.224;27.976;2023-03-21T06:53:41;100493.19;;;7.22;100.00
5966;BME280;3009;43.224;27.976;2023-03-21T06:56:13;100501.13;;;7.27;100.00
5966;BME280;3009;43.224;27.976;2023-03-21T06:58:41;100500.25;;;7.37;100.00
5966;BME280;3009;43.224;27.976;2023-03-21T07:01:10;100506.34;;;7.43;100.00
5966;BME280;3009;43.224;27.976;2023-03-21T07:03:38;100504.53;;;7.33;100.00
5966;BME280;3009;43.224;27.976;2023-03-21T07:06:08;100495.94;;;7.41;100.00
5966;BME280;3009;43.224;27.976;2023-03-21T07:08:38;100492.75;;;7.63;100.00
5966;BME280;3009;43.224;27.976;2023-03-21T07:11:07;100496.91;;;7.75;100.00
5966;BME280;3009;43.224;27.976;2023-03-21T07:13:37;100490.94;;;7.59;100.00
5966;BME280;3009;43.224;27.976;2023-03-21T07:16:07;100482.63;;;7.60;100.00
5966;BME280;3009;43.224;27.976;2023-03-21T07:18:36;100485.59;;;7.59;100.00
5966;BME280;3009;43.224;27.976;2023-03-21T07:21:05;100473.69;;;7.51;100.00
5966;BME280;3009;43.224;27.976;2023-03-21T07:23:33;100476.84;;;7.53;100.00
5966;BME280;3009;43.224;27.976;2023-03-21T07:26:01;100487.56;;;7.72;100.00
5966;BME280;3009;43.224;27.976;2023-03-21T07:28:30;100494.22;;;7.75;100.00
5966;BME280;3009;43.224;27.976;2023-03-21T07:31:02;100507.28;;;7.76;100.00
5966;BME280;3009;43.224;27.976;2023-03-21T07:33:31;100515.63;;;7.70;100.00
5966;BME280;3009;43.224;27.976;2023-03-21T07:36:01;100518.25;;;7.75;100.00
5966;BME280;3009;43.224;27.976;2023-03-21T07:38:30;100516.66;;;7.74;100.00
5966;BME280;3009;43.224;27.976;2023-03-21T07:40:59;100505.97;;;7.50;100.00
5966;BME280;3009;43.224;27.976;2023-03-21T07:43:27;100495.41;;;7.39;100.00
5966;BME280;3009;43.224;27.976;2023-03-21T07:45:56;100477.97;;;7.47;100.00
5966;BME280;3009;43.224;27.976;2023-03-21T07:48:26;100462.97;;;7.56;100.00
5966;BME280;3009;43.224;27.976;2023-03-21T07:50:55;100469.31;;;7.60;100.00
5966;BME280;3009;43.224;27.976;2023-03-21T07:53:23;100488.78;;;7.85;100.00
5966;BME280;3009;43.224;27.976;2023-03-21T07:55:53;100484.59;;;7.98;100.00
5966;BME280;3009;43.224;27.976;2023-03-21T07:58:22;100479.13;;;7.65;100.00
5966;BME280;3009;43.224;27.976;2023-03-21T08:00:51;100477.69;;;7.49;100.00
5966;BME280;3009;43.224;27.976;2023-03-21T08:03:21;100487.66;;;7.43;100.00
5966;BME280;3009;43.224;27.976;2023-03-21T08:05:54;100484.19;;;7.42;100.00
5966;BME280;3009;43.224;27.976;2023-03-21T08:08:22;100483.22;;;7.57;100.00
5966;BME280;3009;43.224;27.976;2023-03-21T08:10:51;100472.81;;;7.56;100.00
5966;BME280;3009;43.224;27.976;2023-03-21T08:13:20;100466.31;;;7.43;100.00
5966;BME280;3009;43.224;27.976;2023-03-21T08:15:48;100467.78;;;7.54;100.00
5966;BME280;3009;43.224;27.976;2023-03-21T08:18:17;100461.28;;;7.60;100.00
5966;BME280;3009;43.224;27.976;2023-03-21T08:20:45;100460.88;;;7.72;100.00
5966;BME280;3009;43.224;27.976;2023-03-21T08:23:19;100447.75;;;7.76;100.00
5966;BME280;3009;43.224;27.976;2023-03-21T08:25:50;100461.78;;;7.87;100.00
5966;BME280;3009;43.224;27.976;2023-03-21T08:28:19;100469.13;;;7.95;100.00
5966;BME280;3009;43.224;27.976;2023-03-21T08:30:48;100476.38;;;7.94;100.00
5966;BME280;3009;43.224;27.976;2023-03-21T08:33:17;100469.78;;;8.06;100.00
5966;BME280;3009;43.224;27.976;2023-03-21T08:35:46;100469.72;;;8.11;100.00
5966;BME280;3009;43.224;27.976;2023-03-21T08:38:15;100468.00;;;8.20;100.00
5966;BME280;3009;43.224;27.976;2023-03-21T08:40:45;100466.53;;;8.09;100.00
5966;BME280;3009;43.224;27.976;2023-03-21T08:43:13;100462.59;;;8.06;100.00
5966;BME280;3009;43.224;27.976;2023-03-21T08:45:42;100471.75;;;8.19;100.00
5966;BME280;3009;43.224;27.976;2023-03-21T08:48:10;100461.78;;;8.25;100.00
5966;BME280;3009;43.224;27.976;2023-03-21T08:50:38;100471.66;;;8.24;100.00
5966;BME280;3009;43.224;27.976;2023-03-21T08:53:07;100477.75;;;8.11;100.00
5966;BME280;3009;43.224;27.976;2023-03-21T08:55:35;100488.03;;;7.98;100.00
5966;BME280;3009;43.224;27.976;2023-03-21T08:58:05;100494.03;;;7.90;100.00
5966;BME280;3009;43.224;27.976;2023-03-21T09:00:34;100491.16;;;8.06;100.00
5966;BME280;3009;43.224;27.976;2023-03-21T09:03:02;100481.94;;;7.74;100.00
5966;BME280;3009;43.224;27.976;2023-03-21T09:05:31;100472.06;;;7.74;100.00
5966;BME280;3009;43.224;27.976;2023-03-21T09:07:59;100477.56;;;7.83;100.00
5966;BME280;3009;43.224;27.976;2023-03-21T09:10:29;100495.75;;;8.00;100.00
5966;BME280;3009;43.224;27.976;2023-03-21T09:12:57;100478.28;;;7.89;100.00
5966;BME280;3009;43.224;27.976;2023-03-21T09:15:27;100469.28;;;8.04;100.00
5966;BME280;3009;43.224;27.976;2023-03-21T09:17:56;100466.25;;;7.91;100.00
5966;BME280;3009;43.224;27.976;2023-03-21T09:20:39;100464.88;;;7.75;100.00
5966;BME280;3009;43.224;27.976;2023-03-21T09:23:09;100466.78;;;7.69;100.00
5966;BME280;3009;43.224;27.976;2023-03-21T09:25:38;100467.59;;;7.70;100.00
5966;BME280;3009;43.224;27.976;2023-03-21T09:28:07;100468.41;;;7.70;100.00
5966;BME280;3009;43.224;27.976;2023-03-21T09:30:36;100467.88;;;7.68;100.00
5966;BME280;3009;43.224;27.976;2023-03-21T09:33:05;100471.34;;;7.88;100.00
5966;BME280;3009;43.224;27.976;2023-03-21T09:35:38;100479.75;;;8.00;100.00
5966;BME280;3009;43.224;27.976;2023-03-21T09:38:08;100476.69;;;7.88;100.00
5966;BME280;3009;43.224;27.976;2023-03-21T09:40:52;100477.94;;;7.95;100.00
5966;BME280;3009;43.224;27.976;2023-03-21T09:43:34;100477.63;;;7.78;100.00
5966;BME280;3009;43.224;27.976;2023-03-21T09:46:09;100482.69;;;7.79;100.00
5966;BME280;3009;43.224;27.976;2023-03-21T09:48:45;100483.63;;;7.89;100.00
5966;BME280;3009;43.224;27.976;2023-03-21T09:51:26;100480.75;;;8.04;100.00
5966;BME280;3009;43.224;27.976;2023-03-21T09:53:58;100483.78;;;8.16;100.00
5966;BME280;3009;43.224;27.976;2023-03-21T09:56:29;100475.78;;;8.36;100.00
5966;BME280;3009;43.224;27.976;2023-03-21T09:58:59;100474.84;;;8.07;100.00
5966;BME280;3009;43.224;27.976;2023-03-21T10:01:30;100485.69;;;8.16;100.00
5966;BME280;3009;43.224;27.976;2023-03-21T10:04:02;100481.50;;;8.29;100.00
5966;BME280;3009;43.224;27.976;2023-03-21T10:06:33;100473.59;;;8.38;100.00
5966;BME280;3009;43.224;27.976;2023-03-21T10:09:06;100471.03;;;8.32;100.00
5966;BME280;3009;43.224;27.976;2023-03-21T10:11:41;100483.00;;;8.16;100.00
5966;BME280;3009;43.224;27.976;2023-03-21T10:14:18;100489.94;;;8.17;100.00
5966;BME280;3009;43.224;27.976;2023-03-21T10:16:51;100495.28;;;8.17;100.00
5966;BME280;3009;43.224;27.976;2023-03-21T10:19:21;100478.88;;;8.24;100.00
5966;BME280;3009;43.224;27.976;2023-03-21T10:21:50;100480.81;;;8.18;100.00
5966;BME280;3009;43.224;27.976;2023-03-21T10:24:31;100489.50;;;8.10;100.00
5966;BME280;3009;43.224;27.976;2023-03-21T10:27:01;100485.00;;;8.24;100.00
5966;BME280;3009;43.224;27.976;2023-03-21T10:29:34;100482.44;;;8.19;100.00
5966;BME280;3009;43.224;27.976;2023-03-21T10:32:09;100486.63;;;8.06;100.00
5966;BME280;3009;43.224;27.976;2023-03-21T10:34:41;100487.28;;;8.17;100.00
5966;BME280;3009;43.224;27.976;2023-03-21T10:37:12;100486.97;;;8.19;100.00
5966;BME280;3009;43.224;27.976;2023-03-21T10:39:42;100481.31;;;8.39;100.00
5966;BME280;3009;43.224;27.976;2023-03-21T10:42:18;100488.50;;;8.44;100.00
5966;BME280;3009;43.224;27.976;2023-03-21T10:44:49;100491.28;;;8.72;100.00
5966;BME280;3009;43.224;27.976;2023-03-21T10:47:22;100482.50;;;8.71;100.00
5966;BME280;3009;43.224;27.976;2023-03-21T10:49:52;100483.75;;;8.74;100.00
5966;BME280;3009;43.224;27.976;2023-03-21T10:52:41;100476.66;;;8.83;100.00
5966;BME280;3009;43.224;27.976;2023-03-21T10:55:18;100473.22;;;8.63;100.00
5966;BME280;3009;43.224;27.976;2023-03-21T10:57:56;100474.06;;;8.45;100.00
5966;BME280;3009;43.224;27.976;2023-03-21T11:00:27;100476.03;;;8.72;100.00
5966;BME280;3009;43.224;27.976;2023-03-21T11:02:59;100469.94;;;8.85;100.00
5966;BME280;3009;43.224;27.976;2023-03-21T11:05:34;100465.19;;;8.82;100.00
5966;BME280;3009;43.224;27.976;2023-03-21T11:08:05;100464.63;;;8.99;100.00
5966;BME280;3009;43.224;27.976;2023-03-21T11:10:49;100478.97;;;8.90;100.00
5966;BME280;3009;43.224;27.976;2023-03-21T11:13:23;100477.69;;;8.68;100.00
5966;BME280;3009;43.224;27.976;2023-03-21T11:15:53;100466.66;;;8.75;100.00
5966;BME280;3009;43.224;27.976;2023-03-21T11:18:25;100472.16;;;8.64;100.00
5966;BME280;3009;43.224;27.976;2023-03-21T11:20:56;100475.03;;;8.68;100.00
5966;BME280;3009;43.224;27.976;2023-03-21T11:23:28;100470.94;;;8.57;100.00
5966;BME280;3009;43.224;27.976;2023-03-21T11:25:58;100469.00;;;8.62;100.00
5966;BME280;3009;43.224;27.976;2023-03-21T11:28:32;100461.44;;;8.50;100.00
5966;BME280;3009;43.224;27.976;2023-03-21T11:31:05;100453.56;;;8.73;100.00
5966;BME280;3009;43.224;27.976;2023-03-21T11:33:38;100469.84;;;8.91;100.00
5966;BME280;3009;43.224;27.976;2023-03-21T11:36:26;100460.28;;;8.71;100.00
5966;BME280;3009;43.224;27.976;2023-03-21T11:39:11;100459.44;;;8.89;100.00
5966;BME280;3009;43.224;27.976;2023-03-21T11:41:41;100458.03;;;8.45;100.00
5966;BME280;3009;43.224;27.976;2023-03-21T11:44:25;100453.41;;;8.83;100.00
5966;BME280;3009;43.224;27.976;2023-03-21T11:46:54;100450.59;;;8.75;100.00
5966;BME280;3009;43.224;27.976;2023-03-21T11:49:24;100449.69;;;8.65;100.00
5966;BME280;3009;43.224;27.976;2023-03-21T11:52:05;100455.03;;;8.65;100.00
5966;BME280;3009;43.224;27.976;2023-03-21T11:55:00;100457.44;;;8.81;100.00
5966;BME280;3009;43.224;27.976;2023-03-21T11:57:35;100449.72;;;8.46;100.00
5966;BME280;3009;43.224;27.976;2023-03-21T12:00:11;100446.63;;;8.72;100.00
5966;BME280;3009;43.224;27.976;2023-03-21T12:03:12;100454.28;;;8.79;100.00
5966;BME280;3009;43.224;27.976;2023-03-21T12:05:52;100449.75;;;8.60;100.00
5966;BME280;3009;43.224;27.976;2023-03-21T12:08:31;100450.97;;;8.68;100.00
5966;BME280;3009;43.224;27.976;2023-03-21T12:11:11;100450.44;;;8.85;100.00
5966;BME280;3009;43.224;27.976;2023-03-21T12:13:50;100440.34;;;8.49;100.00
5966;BME280;3009;43.224;27.976;2023-03-21T12:16:27;100441.13;;;8.30;100.00
5966;BME280;3009;43.224;27.976;2023-03-21T12:19:25;100444.25;;;8.19;100.00
5966;BME280;3009;43.224;27.976;2023-03-21T12:22:05;100440.41;;;8.25;100.00
5966;BME280;3009;43.224;27.976;2023-03-21T12:24:41;100429.72;;;8.44;100.00
5966;BME280;3009;43.224;27.976;2023-03-21T12:27:18;100429.94;;;8.28;100.00
5966;BME280;3009;43.224;27.976;2023-03-21T12:30:06;100433.84;;;8.17;100.00
5966;BME280;3009;43.224;27.976;2023-03-21T12:32:50;100425.84;;;8.17;100.00
5966;BME280;3009;43.224;27.976;2023-03-21T12:35:33;100429.50;;;8.40;100.00
5966;BME280;3009;43.224;27.976;2023-03-21T12:38:14;100421.25;;;8.56;100.00
5966;BME280;3009;43.224;27.976;2023-03-21T12:40:54;100420.97;;;8.38;100.00
5966;BME280;3009;43.224;27.976;2023-03-21T12:43:36;100417.97;;;8.26;100.00
5966;BME280;3009;43.224;27.976;2023-03-21T12:46:12;100410.94;;;8.49;100.00
5966;BME280;3009;43.224;27.976;2023-03-21T12:48:46;100406.59;;;8.53;100.00
5966;BME280;3009;43.224;27.976;2023-03-21T12:51:19;100403.34;;;8.56;100.00
5966;BME280;3009;43.224;27.976;2023-03-21T12:54:02;100398.97;;;8.27;100.00
5966;BME280;3009;43.224;27.976;2023-03-21T12:56:36;100394.47;;;8.23;100.00
5966;BME280;3009;43.224;27.976;2023-03-21T12:59:17;100405.34;;;7.93;100.00
5966;BME280;3009;43.224;27.976;2023-03-21T13:01:50;100400.44;;;7.81;100.00
5966;BME280;3009;43.224;27.976;2023-03-21T13:04:46;100393.25;;;7.82;100.00
5966;BME280;3009;43.224;27.976;2023-03-21T13:07:20;100397.91;;;7.71;100.00
5966;BME280;3009;43.224;27.976;2023-03-21T13:09:52;100394.09;;;7.58;100.00
5966;BME280;3009;43.224;27.976;2023-03-21T13:12:36;100401.09;;;7.73;100.00
5966;BME280;3009;43.224;27.976;2023-03-21T13:15:46;100393.72;;;7.65;100.00
5966;BME280;3009;43.224;27.976;2023-03-21T13:18:24;100393.19;;;7.44;100.00
5966;BME280;3009;43.224;27.976;2023-03-21T13:20:57;100395.69;;;7.59;100.00
5966;BME280;3009;43.224;27.976;2023-03-21T13:23:33;100379.81;;;7.49;100.00
5966;BME280;3009;43.224;27.976;2023-03-21T13:26:07;100395.00;;;7.49;100.00
5966;BME280;3009;43.224;27.976;2023-03-21T13:28:38;100380.50;;;7.36;100.00
5966;BME280;3009;43.224;27.976;2023-03-21T13:31:18;100380.25;;;7.32;100.00
5966;BME280;3009;43.224;27.976;2023-03-21T13:33:48;100385.75;;;7.22;100.00
5966;BME280;3009;43.224;27.976;2023-03-21T13:36:22;100378.59;;;7.17;100.00